首页
METAR-TAF:

METAR-TAF

机场 :

成吉思汗國際機場

乌兰巴托, 蒙古国

纬度: 47-55N, 经度: 106-52E, 海拔: 1306米

当前天气观测

该预报发布于35分钟前的13:30 UTC
风速2节,风向多变
温度 -17°C
湿度 77%
气压 1019 hPa
能见度10公里或以上
1500米以下无云,无积雨云

METAR: ZMUB 171330Z VRB01MPS CAVOK M17/M20 Q1019 NOSIG RMK QFE656.7 76

时间: 22:05 (14:05 UTC)

预报

该预报发布于3小时和5分钟前的11:00 UTC
预报有效从17日的 12点(UTC)到 18日的 18点(UTC)
风速4节,风向多变
能见度10公里或以上
散云层高于10000英尺
成为
从 17日的 21点(UTC)到 17日的 23点(UTC)
能見度: 6000
成为
从 18日的 03点(UTC)到 18日的 05点(UTC)
风速10节,风向西南
能见度10公里或以上
成为
从 18日的 08点(UTC)到 18日的 10点(UTC)
风速4节,风向多变

TAF: ZMUB 171100Z 1712/1818 VRB02MPS 9999 SCT100 TNM24/1723Z TXM06/1807Z BECMG 1721/1723 6000 BECMG 1803/1805 23005MPS 9999 NSW BECMG 1808/1810 VRB02MPS

超过4000个机场的气象观测和天气预报(METAR&TAF报告)。

可查询的气象台以黄色和红色小点在地图上表示。

将鼠标移到小点上方,可查看气象台名称。

然后点击查看天气观测和预报。

如需切换地图:点击带黑十字的绿色按钮放大地图;点击带横线的绿色按钮缩小地图;或者点击绿色箭头查看邻近地区的地图。


METAR-TAF: